Aultbea, United Kingdom

7:27 AM BST on August 05, 2015 (GMT +0100)
Strath | | Change Station
CLOSE
Current Station
Personal Weather Station
Location: Gairloch, ROSS-SHIRE
Elevation: 32 ft
Nearby Weather Stations

Elev 32 ft 57.73 °N, 5.70 °W | Updated 2 minutes ago

Mostly Cloudy
Mostly Cloudy
55.2 °F
Feels Like 55.2 °F
N
5.0
Wind Variable Wind from SW
Gusts 10.0 mph

Today
High -- | Low -- °F
--% Chance of Precip.
Yesterday
High -- | Low -- °F
Precip. -- in
5:23 AM 9:31 PM
Waning Gibbous, 70% visible
Pressure 29.59 in
Visibility 6.2 miles
Clouds Few 800 ft
Scattered Clouds 1200 ft
Mostly Cloudy 3000 ft
Dew Point 52 °F
Humidity 90%
Rainfall 0.09 in
Snow Depth Not available.
UV 0 out of 12
Pollen Not available.
Air Quality Not available.
Flu Activity Not available.
METAR EGPO 050620Z 18014KT 9999 VCSH FEW008 SCT012 BKN030 12/09 Q1002

More Conditions Fewer Conditions

Pressure 29.59 in
Visibility 6.2 miles
Clouds Few 800 ft
Scattered Clouds 1200 ft
Mostly Cloudy 3000 ft
Dew Point 52 °F
Humidity 90%
Rainfall 0.09 in
Snow Depth Not available.
UV 0 out of 12
Pollen Not available.
Air Quality Not available.
Flu Activity Not available.
METAR EGPO 050620Z 18014KT 9999 VCSH FEW008 SCT012 BKN030 12/09 Q1002

More Conditions Fewer Conditions

10-Day Weather Forecast

×

Almanac

Astronomy

Aug. 05, 2015 Rise Set
Actual Time
Civil Twilight
Nautical Twilight
Astronomical Twilight
Moon
Length of Visible Light
Length of Day
Tomorrow will be .
, % of the Moon is Illuminated

Today's Extremes

Country Highs Country Lows

Community

WunderPhotos

Upload Photos

1,844,106 photos uploaded!

WunderBlogs® & News

Nearby

Air Quality

  Air Quality AQ Index Pollutant
Not available.

Snow Depth

Station Depth Elevation

Earthquake Activity

City Distance Mag. Time & Date
Minimum magnitude displayed is 2.5.

Coastal Water Temperatures

Place Temperature

Stations

Nearby Weather Stations

Station Location Temp. Windchill Dew Point Humidity Wind Precip. Elev Updated Type